Time;durP1;ratioP1;P1;durP2;ratioP2;P2;SDS_P1;SDS_P2;PMS_P1;PMS_P2;Temp;Humidity;BMP_temperature;BMP_pressure;BME280_temperature;BME280_humidity;BME280_pressure;Samples;Min_cycle;Max_cycle;Signal;HPM_P1;HPM_P2
2021/12/19 00:01:48;;;;;;;14.35;5.47;;;7.80;99.90;;;;;;5046924;28;20790;-59
2021/12/19 00:09:30;;;;;;;15.25;6.45;;;7.80;99.90;;;;;;5028207;28;20060;-60
2021/12/19 00:11:57;;;;;;;15.30;6.57;;;7.80;99.90;;;;;;5046463;28;20135;-59
2021/12/19 00:14:23;;;;;;;11.30;6.65;;;7.80;99.90;;;;;;5044926;28;20284;-59
2021/12/19 00:16:54;;;;;;;14.75;7.25;;;7.80;99.90;;;;;;5044692;28;20102;-59
2021/12/19 00:19:19;;;;;;;18.95;8.32;;;7.80;99.90;;;;;;5046233;28;20045;-60
2021/12/19 00:21:46;;;;;;;19.05;8.25;;;7.80;99.90;;;;;;5045640;28;20061;-60
2021/12/19 00:24:12;;;;;;;;;;;7.80;99.90;;;;;;5046897;28;20053;-59
2021/12/19 00:26:38;;;;;;;13.38;7.32;;;7.80;99.90;;;;;;5063834;28;19927;-59
2021/12/19 00:29:04;;;;;;;18.23;8.23;;;7.80;99.90;;;;;;5045941;28;20224;-59
2021/12/19 00:31:31;;;;;;;17.30;7.78;;;7.80;99.90;;;;;;5046076;28;20400;-59
2021/12/19 00:33:57;;;;;;;16.65;7.68;;;7.80;99.90;;;;;;5047593;28;20053;-59
2021/12/19 00:36:23;;;;;;;12.10;7.35;;;7.80;99.90;;;;;;5026790;28;20512;-60
2021/12/19 00:38:50;;;;;;;13.10;6.93;;;7.80;99.90;;;;;;5034571;28;20128;-59
2021/12/19 00:41:16;;;;;;;18.63;7.90;;;7.80;99.90;;;;;;5046412;28;20053;-59
2021/12/19 00:46:09;;;;;;;15.13;5.88;;;7.90;99.90;;;;;;5064109;28;20065;-59
2021/12/19 00:48:42;;;;;;;12.02;5.25;;;7.80;99.90;;;;;;5045429;28;20049;-59
2021/12/19 00:51:10;;;;;;;7.80;3.97;;;7.80;99.90;;;;;;5062960;28;20040;-59
2021/12/19 00:53:36;;;;;;;12.05;4.30;;;7.80;99.90;;;;;;5041882;28;20053;-60
2021/12/19 00:56:03;;;;;;;7.20;3.42;;;7.80;99.90;;;;;;5042400;28;20410;-60
2021/12/19 00:58:28;;;;;;;9.63;3.13;;;7.80;99.90;;;;;;5045247;28;20055;-60
2021/12/19 01:00:54;;;;;;;10.00;2.73;;;7.80;99.90;;;;;;5053935;28;20033;-60
2021/12/19 01:03:21;;;;;;;5.90;2.40;;;7.70;99.90;;;;;;5052793;28;20041;-59
2021/12/19 01:05:48;;;;;;;2.90;1.70;;;7.70;99.90;;;;;;5045338;28;20053;-59
2021/12/19 01:08:14;;;;;;;2.85;1.42;;;7.70;99.90;;;;;;5043970;28;20063;-60
2021/12/19 01:10:42;;;;;;;2.85;1.05;;;7.60;99.90;;;;;;5042716;28;20063;-59
2021/12/19 01:13:09;;;;;;;3.17;1.30;;;7.60;99.90;;;;;;5048817;28;20056;-60
2021/12/19 01:15:34;;;;;;;2.78;1.30;;;7.50;99.90;;;;;;5044997;28;20053;-59
2021/12/19 01:18:01;;;;;;;4.45;1.60;;;7.50;99.90;;;;;;5045030;28;20051;-59
2021/12/19 01:20:29;;;;;;;2.28;1.45;;;7.50;99.90;;;;;;5045288;28;20112;-59
2021/12/19 01:22:56;;;;;;;4.72;1.55;;;7.50;99.90;;;;;;5032068;28;20048;-60
2021/12/19 01:25:22;;;;;;;7.50;1.73;;;7.50;99.90;;;;;;5045340;28;20104;-60
2021/12/19 01:27:48;;;;;;;3.95;1.48;;;7.50;99.90;;;;;;5044655;28;20061;-60
2021/12/19 01:30:14;;;;;;;5.22;2.10;;;7.40;99.90;;;;;;5063058;28;20064;-60
2021/12/19 01:32:41;;;;;;;;;;;7.40;99.90;;;;;;5037803;28;20103;-60
2021/12/19 01:35:08;;;;;;;4.70;1.67;;;7.40;99.90;;;;;;5044722;28;19972;-59
2021/12/19 01:37:34;;;;;;;4.85;1.73;;;7.40;99.90;;;;;;5045016;28;20349;-60
2021/12/19 01:40:00;;;;;;;5.85;1.60;;;7.40;99.90;;;;;;5062850;28;20053;-60
2021/12/19 01:42:34;;;;;;;5.97;2.25;;;7.40;99.90;;;;;;5062084;28;20043;-59
2021/12/19 01:45:01;;;;;;;4.47;1.90;;;7.40;99.90;;;;;;5061466;28;20377;-60
2021/12/19 01:47:26;;;;;;;6.63;2.15;;;7.40;99.90;;;;;;5062754;28;20048;-60
2021/12/19 01:49:55;;;;;;;5.13;1.98;;;7.40;99.90;;;;;;5062615;28;20048;-60
2021/12/19 01:52:21;;;;;;;5.22;1.73;;;7.40;99.90;;;;;;5044509;28;20118;-59
2021/12/19 01:54:47;;;;;;;6.85;1.65;;;7.40;99.90;;;;;;5057603;28;20028;-60
2021/12/19 01:57:13;;;;;;;3.87;1.60;;;7.40;99.90;;;;;;5044423;28;20052;-60
2021/12/19 01:59:38;;;;;;;4.00;2.00;;;7.40;99.90;;;;;;5044447;28;20113;-60
2021/12/19 02:02:04;;;;;;;5.47;1.80;;;7.30;99.90;;;;;;5062515;28;20124;-60
2021/12/19 02:04:30;;;;;;;6.23;1.70;;;7.40;99.90;;;;;;5060975;28;20315;-59
2021/12/19 02:06:57;;;;;;;5.38;1.27;;;7.30;99.90;;;;;;5043972;28;20124;-60
2021/12/19 02:09:24;;;;;;;4.72;1.67;;;7.40;99.90;;;;;;5062251;28;20045;-60
2021/12/19 02:11:51;;;;;;;4.07;1.90;;;7.40;99.90;;;;;;5062533;28;20464;-59
2021/12/19 02:14:17;;;;;;;;;;;7.30;99.90;;;;;;5043892;28;20178;-60
2021/12/19 02:16:43;;;;;;;3.78;1.70;;;7.30;99.90;;;;;;5043755;28;20000;-59
2021/12/19 02:19:09;;;;;;;7.47;1.50;;;7.30;99.90;;;;;;5048249;28;20097;-60
2021/12/19 02:21:36;;;;;;;2.38;1.60;;;7.30;99.90;;;;;;5065664;28;22253;-60
2021/12/19 02:24:05;;;;;;;5.05;1.58;;;7.30;99.90;;;;;;5049272;28;20108;-60
2021/12/19 02:26:31;;;;;;;3.60;1.40;;;7.20;99.90;;;;;;5051050;28;20036;-60
2021/12/19 02:28:57;;;;;;;2.63;1.35;;;7.20;99.90;;;;;;5050830;28;20108;-60
2021/12/19 02:31:23;;;;;;;4.20;1.48;;;7.20;99.90;;;;;;5068976;28;20368;-60
2021/12/19 02:50:20;;;;;;;3.95;1.30;;;7.10;99.90;;;;;;5064316;28;20053;-60
2021/12/19 02:52:46;;;;;;;8.05;1.38;;;7.10;99.90;;;;;;5034044;28;20044;-60
2021/12/19 02:55:15;;;;;;;3.22;1.20;;;7.10;99.90;;;;;;5033317;28;20068;-60
2021/12/19 02:57:41;;;;;;;4.63;1.58;;;7.10;99.90;;;;;;5049468;28;20045;-60
2021/12/19 03:00:09;;;;;;;5.72;1.55;;;7.10;99.90;;;;;;5050879;28;20064;-60
2021/12/19 03:02:35;;;;;;;5.35;1.73;;;7.00;99.90;;;;;;5050397;28;20036;-60
2021/12/19 03:05:02;;;;;;;10.83;1.67;;;7.00;99.90;;;;;;5040261;28;20077;-60
2021/12/19 03:07:29;;;;;;;15.43;2.80;;;7.00;99.90;;;;;;5054689;28;20694;-60
2021/12/19 03:18:00;;;;;;;6.53;2.60;;;7.00;99.90;;;;;;5031588;28;20087;-60
2021/12/19 03:20:31;;;;;;;6.70;2.95;;;7.00;99.90;;;;;;5068756;28;20048;-60
2021/12/19 03:22:58;;;;;;;6.95;2.38;;;6.90;99.90;;;;;;5039565;28;20433;-60
2021/12/19 03:25:25;;;;;;;9.80;2.20;;;7.00;99.90;;;;;;5047885;28;20041;-60
2021/12/19 03:27:51;;;;;;;5.50;1.98;;;7.00;99.90;;;;;;5059043;28;20059;-60
2021/12/19 03:30:18;;;;;;;4.50;2.00;;;7.00;99.90;;;;;;5066378;28;20106;-60
2021/12/19 03:32:44;;;;;;;4.05;1.83;;;7.00;99.90;;;;;;5065509;28;20045;-60
2021/12/19 03:35:10;;;;;;;9.43;2.00;;;7.00;99.90;;;;;;5047073;28;20051;-60
2021/12/19 03:37:36;;;;;;;5.47;1.80;;;7.00;99.90;;;;;;5045939;28;20056;-60
2021/12/19 03:40:09;;;;;;;3.13;1.70;;;7.00;99.90;;;;;;5064908;28;20048;-60
2021/12/19 03:42:44;;;;;;;4.47;1.42;;;7.00;99.90;;;;;;5046889;28;20101;-60
2021/12/19 03:45:13;;;;;;;3.38;1.63;;;7.00;99.90;;;;;;5029718;28;20053;-60
2021/12/19 03:47:39;;;;;;;5.32;1.60;;;7.00;99.90;;;;;;5044997;28;20041;-60
2021/12/19 03:50:09;;;;;;;4.80;1.67;;;7.00;99.90;;;;;;5039016;28;20069;-60
2021/12/19 03:52:35;;;;;;;7.90;2.35;;;7.00;99.90;;;;;;5049882;28;20124;-60
2021/12/19 03:55:01;;;;;;;6.00;2.78;;;7.00;99.90;;;;;;5043421;28;20042;-60
2021/12/19 03:57:26;;;;;;;4.75;2.03;;;7.00;99.90;;;;;;5045312;28;20060;-60
2021/12/19 03:59:52;;;;;;;8.03;2.30;;;7.00;99.90;;;;;;5029461;28;20431;-60
2021/12/19 04:02:29;;;;;;;7.18;2.83;;;7.00;99.90;;;;;;5046460;28;20114;-60
2021/12/19 04:04:57;;;;;;;7.88;3.08;;;7.00;99.90;;;;;;5064863;28;20124;-60
2021/12/19 04:07:23;;;;;;;16.05;3.60;;;7.00;99.90;;;;;;5046111;28;20056;-60
2021/12/19 04:09:49;;;;;;;;;;;7.10;99.90;;;;;;5063606;28;20045;-60
2021/12/19 04:12:16;;;;;;;10.85;3.30;;;7.00;99.90;;;;;;5064322;28;20071;-60
2021/12/19 04:14:41;;;;;;;;;;;7.10;99.90;;;;;;5046664;28;20128;-60
2021/12/19 04:17:07;;;;;;;9.40;3.70;;;7.10;99.90;;;;;;5046170;28;20346;-60
2021/12/19 04:19:33;;;;;;;17.70;4.15;;;7.10;99.90;;;;;;5036615;28;20191;-60
2021/12/19 04:22:02;;;;;;;14.15;4.45;;;7.10;99.90;;;;;;5063361;28;20120;-60
2021/12/19 04:24:28;;;;;;;14.70;4.72;;;7.10;99.90;;;;;;5064395;28;20080;-60
2021/12/19 04:26:54;;;;;;;19.15;4.43;;;7.10;99.90;;;;;;5046057;28;20459;-60
2021/12/19 04:29:20;;;;;;;15.02;4.78;;;7.10;99.90;;;;;;5044137;28;20061;-60
2021/12/19 04:31:46;;;;;;;17.55;4.63;;;7.20;99.90;;;;;;5060305;28;20045;-59
2021/12/19 04:34:13;;;;;;;17.88;5.63;;;7.20;99.90;;;;;;5064533;28;20055;-59
2021/12/19 04:36:42;;;;;;;16.05;5.68;;;7.20;99.90;;;;;;5045736;28;20044;-60
2021/12/19 05:16:40;;;;;;;26.17;8.52;;;7.30;99.90;;;;;;4965579;28;20059;-59
2021/12/19 05:19:18;;;;;;;22.27;8.93;;;7.30;99.90;;;;;;4966032;28;20520;-60
2021/12/19 05:21:43;;;;;;;32.83;9.80;;;7.40;99.90;;;;;;4971232;28;20839;-60
2021/12/19 05:24:21;;;;;;;28.52;9.45;;;7.30;99.90;;;;;;4981529;28;20105;-60
2021/12/19 05:26:48;;;;;;;23.00;8.98;;;7.40;99.90;;;;;;4965383;28;20059;-60
2021/12/19 05:29:15;;;;;;;27.85;9.10;;;7.30;99.90;;;;;;4988364;28;20061;-60
2021/12/19 05:31:46;;;;;;;28.63;9.57;;;7.30;99.90;;;;;;5063168;28;20041;-60
2021/12/19 05:34:12;;;;;;;36.17;10.65;;;7.30;99.90;;;;;;5059750;28;20048;-59
2021/12/19 05:47:36;;;;;;;28.25;7.45;;;7.30;99.90;;;;;;5062403;28;20093;-60
2021/12/19 05:50:03;;;;;;;22.15;7.80;;;7.30;99.90;;;;;;5045103;28;20408;-60
2021/12/19 05:52:29;;;;;;;29.00;8.18;;;7.30;99.90;;;;;;5062226;28;20122;-60
2021/12/19 05:54:55;;;;;;;23.77;7.60;;;7.30;99.90;;;;;;5061115;28;20029;-60
2021/12/19 05:57:21;;;;;;;23.40;7.47;;;7.30;99.90;;;;;;5044413;28;20060;-60
2021/12/19 05:59:46;;;;;;;22.48;6.95;;;7.30;99.90;;;;;;5044557;28;20045;-60
2021/12/19 06:02:12;;;;;;;24.37;7.40;;;7.30;99.90;;;;;;5044511;28;20045;-60
2021/12/19 06:04:37;;;;;;;25.00;7.10;;;7.30;99.90;;;;;;5062784;28;20045;-60
2021/12/19 06:07:03;;;;;;;23.47;7.13;;;7.30;99.90;;;;;;5038510;28;20081;-60
2021/12/19 06:09:29;;;;;;;23.17;7.65;;;7.30;99.90;;;;;;5053250;28;20065;-60
2021/12/19 06:11:54;;;;;;;19.20;7.10;;;7.30;99.90;;;;;;5034774;28;20053;-60
2021/12/19 06:14:20;;;;;;;24.83;7.37;;;7.20;99.90;;;;;;5073367;28;20073;-60
2021/12/19 06:16:46;;;;;;;25.35;7.63;;;7.30;99.90;;;;;;5039497;28;20084;-60
2021/12/19 06:19:12;;;;;;;25.15;7.45;;;7.30;99.90;;;;;;5039017;28;20496;-59
2021/12/19 06:21:38;;;;;;;23.23;6.87;;;7.30;99.90;;;;;;5064881;28;20050;-60
2021/12/19 06:24:03;;;;;;;28.45;6.78;;;7.30;99.90;;;;;;5022691;28;20072;-60
2021/12/19 06:26:32;;;;;;;27.98;7.85;;;7.30;99.90;;;;;;5027813;28;20155;-60
2021/12/19 06:28:57;;;;;;;24.80;7.38;;;7.30;99.90;;;;;;5037631;28;20046;-61
2021/12/19 06:31:23;;;;;;;23.47;6.80;;;7.30;99.90;;;;;;5028227;28;20050;-60
2021/12/19 06:33:48;;;;;;;19.63;6.60;;;7.30;99.90;;;;;;5042334;28;20041;-60
2021/12/19 06:36:14;;;;;;;19.90;7.13;;;7.30;99.90;;;;;;5024958;28;20081;-60
2021/12/19 06:38:40;;;;;;;24.67;6.03;;;7.30;99.90;;;;;;5040855;28;20092;-60
2021/12/19 06:41:06;;;;;;;19.03;5.27;;;7.30;99.90;;;;;;5040603;28;20057;-60
2021/12/19 06:43:33;;;;;;;23.77;6.10;;;7.30;99.90;;;;;;5040419;28;20296;-60
2021/12/19 06:45:59;;;;;;;23.40;5.28;;;7.30;99.90;;;;;;5039770;28;20300;-60
2021/12/19 06:48:25;;;;;;;16.85;6.00;;;7.30;99.90;;;;;;5041916;28;20053;-60
2021/12/19 06:50:52;;;;;;;17.10;4.90;;;7.30;99.90;;;;;;5042242;28;20037;-60
2021/12/19 06:53:17;;;;;;;24.38;5.00;;;7.30;99.90;;;;;;5040074;28;20050;-60
2021/12/19 06:55:43;;;;;;;19.33;4.85;;;7.30;99.90;;;;;;5024079;28;20114;-60
2021/12/19 06:58:09;;;;;;;25.27;5.27;;;7.30;99.90;;;;;;5028196;28;20137;-60
2021/12/19 07:00:34;;;;;;;20.00;4.20;;;7.20;99.90;;;;;;5027307;28;20187;-60
2021/12/19 07:03:00;;;;;;;15.27;4.43;;;7.20;99.90;;;;;;5040672;28;20091;-60
2021/12/19 07:05:26;;;;;;;21.00;5.27;;;7.30;99.90;;;;;;5041541;28;20037;-60
2021/12/19 07:07:51;;;;;;;15.67;5.23;;;7.20;99.90;;;;;;5041429;28;20299;-60
2021/12/19 07:10:17;;;;;;;17.40;4.43;;;7.30;99.90;;;;;;5076689;28;20126;-60
2021/12/19 07:12:43;;;;;;;16.25;4.72;;;7.30;99.90;;;;;;5045909;28;20091;-60
2021/12/19 07:15:09;;;;;;;19.43;4.80;;;7.20;99.90;;;;;;5042903;28;20053;-60
2021/12/19 07:17:35;;;;;;;17.33;5.18;;;7.20;99.90;;;;;;5044221;28;20056;-60
2021/12/19 07:20:01;;;;;;;14.68;5.28;;;7.20;99.90;;;;;;5044658;28;20033;-60
2021/12/19 07:22:27;;;;;;;18.08;3.97;;;7.20;99.90;;;;;;5043674;28;20101;-60
2021/12/19 07:24:52;;;;;;;22.33;5.10;;;7.20;99.90;;;;;;5045584;28;20049;-60
2021/12/19 07:27:18;;;;;;;26.30;4.83;;;7.20;99.90;;;;;;5044079;28;20055;-59
2021/12/19 07:29:44;;;;;;;23.03;4.93;;;7.30;99.90;;;;;;5040346;28;20091;-58
2021/12/19 07:32:11;;;;;;;20.35;5.45;;;7.30;99.90;;;;;;5045397;28;20053;-61
2021/12/19 07:34:38;;;;;;;26.48;6.28;;;7.30;99.90;;;;;;5042944;28;20137;-58
2021/12/19 07:37:04;;;;;;;28.73;5.45;;;7.30;99.90;;;;;;5041756;28;20053;-58
2021/12/19 07:41:58;;;;;;;21.27;5.10;;;7.30;99.90;;;;;;5042178;28;20053;-59
2021/12/19 07:44:24;;;;;;;31.95;6.60;;;7.30;99.90;;;;;;5041037;28;20042;-58
2021/12/19 07:46:50;;;;;;;32.87;6.23;;;7.30;99.90;;;;;;5042302;28;20122;-59
2021/12/19 07:49:16;;;;;;;22.63;5.65;;;7.30;99.90;;;;;;5043705;28;20060;-59
2021/12/19 07:51:42;;;;;;;31.38;5.35;;;7.30;99.90;;;;;;5042095;28;20053;-59
2021/12/19 07:54:08;;;;;;;20.15;5.30;;;7.30;99.90;;;;;;5042157;28;20041;-59
2021/12/19 07:56:34;;;;;;;32.70;6.67;;;7.30;99.90;;;;;;5042481;28;20048;-59
2021/12/19 07:59:00;;;;;;;;;;;7.30;99.90;;;;;;5042891;28;20359;-60
2021/12/19 08:01:26;;;;;;;19.73;5.10;;;7.30;99.90;;;;;;5043240;28;19921;-58
2021/12/19 08:03:52;;;;;;;24.40;4.87;;;7.30;99.90;;;;;;5043626;28;20057;-58
2021/12/19 08:06:17;;;;;;;23.33;4.90;;;7.30;99.90;;;;;;5044282;28;20038;-59
2021/12/19 08:08:49;;;;;;;25.73;5.30;;;7.40;99.90;;;;;;5040562;28;20052;-58
2021/12/19 08:13:59;;;;;;;15.30;4.30;;;7.40;99.90;;;;;;5044086;28;20090;-58
2021/12/19 08:16:25;;;;;;;15.80;4.40;;;7.40;99.90;;;;;;5041871;28;20045;-58
2021/12/19 08:18:52;;;;;;;18.83;4.27;;;7.40;99.90;;;;;;5042135;28;20045;-57
2021/12/19 08:21:19;;;;;;;16.40;5.00;;;7.40;99.90;;;;;;5042634;28;20297;-57
2021/12/19 08:23:47;;;;;;;19.13;4.55;;;7.40;99.90;;;;;;5043921;28;20053;-59
2021/12/19 08:26:12;;;;;;;21.23;4.03;;;7.40;99.90;;;;;;5044168;28;20465;-58
2021/12/19 08:28:39;;;;;;;17.05;4.25;;;7.40;99.90;;;;;;5044521;28;20049;-60
2021/12/19 08:31:05;;;;;;;18.90;4.18;;;7.40;99.90;;;;;;5042518;28;20045;-59
2021/12/19 08:33:30;;;;;;;23.05;4.90;;;7.40;99.90;;;;;;5040778;28;20043;-59
2021/12/19 08:35:57;;;;;;;20.40;4.73;;;7.40;99.90;;;;;;5041677;28;20168;-60
2021/12/19 08:38:23;;;;;;;18.00;4.85;;;7.40;99.90;;;;;;5041756;28;20384;-59
2021/12/19 08:40:51;;;;;;;21.25;4.45;;;7.40;99.90;;;;;;5042359;28;20160;-59
2021/12/19 08:43:18;;;;;;;21.40;4.63;;;7.40;99.90;;;;;;5040112;28;20140;-58
2021/12/19 08:45:44;;;;;;;22.10;4.90;;;7.40;99.90;;;;;;5043619;28;20099;-58
2021/12/19 08:48:09;;;;;;;21.95;5.03;;;7.50;99.90;;;;;;5043723;28;20077;-62
2021/12/19 08:50:36;;;;;;;20.83;5.10;;;7.50;99.90;;;;;;5042010;28;20045;-58
2021/12/19 08:53:01;;;;;;;20.60;5.07;;;7.40;99.90;;;;;;5043604;28;20042;-58
2021/12/19 08:55:27;;;;;;;17.88;4.72;;;7.40;99.90;;;;;;5042990;28;20068;-58
2021/12/19 08:57:53;;;;;;;23.88;5.45;;;7.50;99.90;;;;;;5043401;28;20499;-58
2021/12/19 09:00:19;;;;;;;18.63;4.10;;;7.50;99.90;;;;;;5042157;28;20407;-58
2021/12/19 09:02:47;;;;;;;21.90;5.32;;;7.50;99.90;;;;;;5025478;28;20073;-59
2021/12/19 09:05:14;;;;;;;21.38;4.43;;;7.50;99.90;;;;;;5041533;28;20049;-58
2021/12/19 09:07:40;;;;;;;18.10;4.43;;;7.50;99.90;;;;;;5041403;28;20056;-58
2021/12/19 09:10:08;;;;;;;17.98;4.40;;;7.50;99.90;;;;;;5041048;28;20053;-58
2021/12/19 09:12:33;;;;;;;26.10;5.32;;;7.50;99.90;;;;;;5041992;28;20060;-58
2021/12/19 09:14:59;;;;;;;20.88;4.35;;;7.50;99.90;;;;;;5042121;28;20666;-58
2021/12/19 09:17:25;;;;;;;22.80;4.47;;;7.50;99.90;;;;;;5041712;28;20061;-57
2021/12/19 09:19:51;;;;;;;15.27;4.40;;;7.60;99.90;;;;;;5043044;28;20082;-58
2021/12/19 09:22:17;;;;;;;22.80;5.32;;;7.60;99.90;;;;;;5054081;28;20088;-58
2021/12/19 09:24:43;;;;;;;25.27;4.63;;;7.60;99.90;;;;;;5044905;28;20052;-58
2021/12/19 09:27:09;;;;;;;19.77;4.17;;;7.60;99.90;;;;;;5052436;28;20286;-59
2021/12/19 09:29:35;;;;;;;44.50;5.13;;;7.60;99.90;;;;;;5061814;28;20298;-58
2021/12/19 09:32:02;;;;;;;22.30;4.97;;;7.60;99.90;;;;;;5044853;28;20052;-59
2021/12/19 09:34:28;;;;;;;32.92;5.07;;;7.60;99.90;;;;;;5062824;28;20040;-58
2021/12/19 09:36:55;;;;;;;24.73;4.78;;;7.70;99.90;;;;;;5040974;28;20053;-61
2021/12/19 09:39:22;;;;;;;27.27;5.13;;;7.60;99.90;;;;;;5057220;28;20040;-59
2021/12/19 09:41:53;;;;;;;24.65;5.07;;;7.60;99.90;;;;;;5062610;28;20056;-59
2021/12/19 09:44:20;;;;;;;19.17;4.97;;;7.70;99.90;;;;;;5060802;28;20059;-58
2021/12/19 09:46:47;;;;;;;25.05;5.03;;;7.70;99.90;;;;;;5062517;28;20088;-58
2021/12/19 09:49:14;;;;;;;24.92;5.63;;;7.70;99.90;;;;;;5036257;28;20049;-58
2021/12/19 09:51:41;;;;;;;23.30;5.72;;;7.70;99.90;;;;;;5062510;28;20052;-58
2021/12/19 09:54:09;;;;;;;27.23;5.47;;;7.70;99.90;;;;;;5062591;28;20105;-59
2021/12/19 09:56:35;;;;;;;23.63;5.38;;;7.70;99.90;;;;;;5027840;28;20567;-56
2021/12/19 09:59:06;;;;;;;38.05;6.50;;;7.70;99.90;;;;;;5053093;28;20480;-58
2021/12/19 10:01:32;;;;;;;39.38;7.05;;;7.70;99.90;;;;;;5034381;28;20053;-60
2021/12/19 10:03:59;;;;;;;26.85;5.35;;;7.80;99.90;;;;;;5049894;28;20068;-59
2021/12/19 10:06:28;;;;;;;20.30;4.97;;;7.70;99.90;;;;;;5053516;28;20049;-59
2021/12/19 10:09:18;;;;;;;24.38;3.80;;;7.70;99.90;;;;;;5031167;28;20042;-59
2021/12/19 10:11:58;;;;;;;21.48;4.20;;;7.70;99.90;;;;;;5067950;28;20056;-59
2021/12/19 10:14:31;;;;;;;15.65;3.63;;;7.70;99.90;;;;;;5028460;28;20843;-59
2021/12/19 10:17:01;;;;;;;15.13;3.92;;;7.80;99.90;;;;;;5051741;28;20060;-59
2021/12/19 10:19:48;;;;;;;22.50;3.63;;;7.80;99.90;;;;;;5066414;28;20037;-59
2021/12/19 10:22:24;;;;;;;18.08;4.15;;;7.80;99.90;;;;;;5068382;28;20049;-59
2021/12/19 10:24:51;;;;;;;16.15;3.15;;;7.80;99.90;;;;;;5051449;28;20053;-59
2021/12/19 10:27:38;;;;;;;17.58;3.53;;;7.80;99.90;;;;;;5065914;28;20085;-59
2021/12/19 10:30:09;;;;;;;30.13;4.10;;;7.80;99.90;;;;;;5050728;28;20040;-59
2021/12/19 10:32:35;;;;;;;15.45;3.47;;;7.80;99.90;;;;;;5060123;28;20870;-59
2021/12/19 10:35:19;;;;;;;13.38;3.65;;;7.80;99.90;;;;;;5058009;28;20044;-59
2021/12/19 10:37:44;;;;;;;13.07;3.08;;;7.80;99.90;;;;;;5068206;28;20580;-59
2021/12/19 10:40:11;;;;;;;15.53;3.20;;;7.90;99.90;;;;;;5067761;28;20108;-58
2021/12/19 10:42:44;;;;;;;;;;;7.90;99.90;;;;;;5054745;28;20734;-59
2021/12/19 10:48:15;;;;;;;19.10;4.05;;;7.90;99.90;;;;;;5043768;28;20449;-59
2021/12/19 10:50:45;;;;;;;23.90;4.05;;;7.90;99.90;;;;;;5050984;28;20057;-59
2021/12/19 10:53:12;;;;;;;19.80;4.50;;;7.90;99.90;;;;;;5046722;28;20689;-59
2021/12/19 10:55:40;;;;;;;14.88;3.80;;;7.90;99.90;;;;;;5049496;28;20901;-59
2021/12/19 10:58:18;;;;;;;14.93;3.92;;;8.00;99.90;;;;;;5075906;28;20107;-59
2021/12/19 11:01:04;;;;;;;18.15;3.75;;;8.00;99.90;;;;;;5049951;28;20048;-60
2021/12/19 11:03:48;;;;;;;18.17;3.97;;;8.00;99.90;;;;;;5050792;28;20469;-59
2021/12/19 11:06:28;;;;;;;16.52;3.75;;;8.00;99.90;;;;;;5073326;28;20431;-60
2021/12/19 11:08:55;;;;;;;18.10;3.92;;;8.00;99.90;;;;;;5039978;28;20080;-60
2021/12/19 11:11:47;;;;;;;21.58;4.05;;;8.00;99.90;;;;;;5043801;28;20041;-59
2021/12/19 11:14:25;;;;;;;17.02;4.15;;;8.10;99.90;;;;;;5064135;28;20045;-59
2021/12/19 11:17:15;;;;;;;19.30;4.03;;;8.10;99.90;;;;;;5042434;28;20045;-60
2021/12/19 11:19:43;;;;;;;22.85;3.90;;;8.10;99.90;;;;;;4984784;28;20058;-60
2021/12/19 11:22:09;;;;;;;15.55;4.43;;;8.10;99.90;;;;;;5004699;28;20062;-59
2021/12/19 11:24:35;;;;;;;24.15;4.47;;;8.10;99.90;;;;;;4987406;28;20050;-59
2021/12/19 11:27:06;;;;;;;24.70;4.72;;;8.10;99.90;;;;;;4986618;28;20101;-59
2021/12/19 11:29:34;;;;;;;22.63;4.45;;;8.10;99.90;;;;;;4969367;28;20069;-59
2021/12/19 11:32:04;;;;;;;24.65;4.35;;;8.10;99.90;;;;;;4985770;28;20213;-59
2021/12/19 11:34:56;;;;;;;23.05;4.88;;;8.10;99.90;;;;;;5002049;28;20472;-59
2021/12/19 11:37:31;;;;;;;24.77;4.82;;;8.10;99.90;;;;;;4985476;28;20141;-59
2021/12/19 11:39:57;;;;;;;22.13;4.32;;;8.10;99.90;;;;;;4989400;28;20038;-59
2021/12/19 11:42:41;;;;;;;19.27;4.30;;;8.20;99.90;;;;;;5001324;28;20096;-59
2021/12/19 11:48:25;;;;;;;27.52;4.65;;;8.20;99.90;;;;;;4999952;28;20066;-60
2021/12/19 11:51:02;;;;;;;23.67;4.40;;;8.20;99.90;;;;;;4982102;28;20054;-60
2021/12/19 11:53:32;;;;;;;22.23;4.78;;;8.20;99.90;;;;;;4988337;28;20074;-60
2021/12/19 11:56:09;;;;;;;27.85;4.35;;;8.20;99.90;;;;;;5014989;28;20072;-65
2021/12/19 11:58:52;;;;;;;22.73;4.90;;;8.30;99.90;;;;;;5060115;28;20048;-60
2021/12/19 12:01:34;;;;;;;27.05;4.93;;;8.30;99.90;;;;;;5042746;28;20041;-58
2021/12/19 12:04:14;;;;;;;26.58;5.25;;;8.30;99.90;;;;;;5063646;28;20055;-59
2021/12/19 12:06:54;;;;;;;24.52;5.13;;;8.30;99.90;;;;;;5060303;28;20388;-59
2021/12/19 12:09:25;;;;;;;20.67;4.60;;;8.30;99.90;;;;;;5062473;28;20068;-60
2021/12/19 12:12:03;;;;;;;18.08;4.70;;;8.30;99.90;;;;;;5025382;28;20038;-58
2021/12/19 12:14:36;;;;;;;23.85;4.97;;;8.30;99.90;;;;;;5063216;28;20044;-58
2021/12/19 12:17:10;;;;;;;29.95;5.05;;;8.30;99.90;;;;;;5044446;28;20085;-59
2021/12/19 12:19:42;;;;;;;24.13;5.25;;;8.30;99.90;;;;;;5044572;28;20100;-59
2021/12/19 12:25:15;;;;;;;21.88;5.47;;;8.30;99.90;;;;;;5020571;28;20127;-59
2021/12/19 12:27:43;;;;;;;32.53;6.43;;;8.40;99.90;;;;;;5018393;28;20133;-58
2021/12/19 12:30:13;;;;;;;21.20;4.60;;;8.30;99.90;;;;;;5021193;28;20046;-59
2021/12/19 12:32:39;;;;;;;23.10;5.32;;;8.30;99.90;;;;;;5021901;28;20118;-59
2021/12/19 12:35:07;;;;;;;23.48;5.75;;;8.30;99.90;;;;;;5023106;28;20061;-62
2021/12/19 12:37:33;;;;;;;27.70;5.30;;;8.30;99.90;;;;;;5021362;28;20089;-60
2021/12/19 12:40:29;;;;;;;20.40;4.75;;;8.30;99.90;;;;;;5021914;28;20394;-61
2021/12/19 12:43:09;;;;;;;25.42;5.13;;;8.30;99.90;;;;;;5021046;28;20085;-62
2021/12/19 12:46:01;;;;;;;27.02;4.80;;;8.20;99.90;;;;;;5004955;28;20070;-62
2021/12/19 12:48:53;;;;;;;22.25;4.03;;;8.20;99.90;;;;;;5021455;28;20084;-61
2021/12/19 12:51:39;;;;;;;27.80;4.22;;;8.20;99.90;;;;;;5021161;28;20050;-60
2021/12/19 12:54:09;;;;;;;20.23;4.80;;;8.20;99.90;;;;;;5014897;28;20076;-57
2021/12/19 12:56:47;;;;;;;25.17;4.60;;;8.20;99.90;;;;;;5022571;28;20044;-58
2021/12/19 12:59:18;;;;;;;24.10;4.35;;;8.20;99.90;;;;;;5022708;28;20049;-59
2021/12/19 13:01:47;;;;;;;33.85;5.68;;;8.20;99.90;;;;;;5022918;28;20157;-59
2021/12/19 13:04:14;;;;;;;21.65;5.35;;;8.20;99.90;;;;;;5021545;28;20057;-60
2021/12/19 13:07:07;;;;;;;22.10;5.03;;;8.20;99.90;;;;;;5021316;28;20123;-60
2021/12/19 13:09:40;;;;;;;24.88;4.07;;;8.20;99.90;;;;;;5019347;28;20124;-59
2021/12/19 13:12:20;;;;;;;22.60;4.75;;;8.20;99.90;;;;;;5020892;28;20057;-61
2021/12/19 13:14:56;;;;;;;26.92;4.15;;;8.20;99.90;;;;;;5004406;28;20050;-59
2021/12/19 13:17:23;;;;;;;21.67;4.75;;;8.20;99.90;;;;;;5019769;28;20152;-59
2021/12/19 13:19:53;;;;;;;25.08;5.32;;;8.20;99.90;;;;;;5006051;28;20048;-59
2021/12/19 13:22:38;;;;;;;13.52;3.60;;;8.20;99.90;;;;;;5041288;28;20056;-60
2021/12/19 13:25:15;;;;;;;26.70;4.68;;;8.20;99.90;;;;;;5061720;28;20106;-59
2021/12/19 13:27:42;;;;;;;;;;;8.20;99.90;;;;;;5059506;28;20047;-60
2021/12/19 13:30:23;;;;;;;23.45;4.95;;;8.20;99.90;;;;;;5043188;28;19931;-60
2021/12/19 13:32:58;;;;;;;23.02;4.13;;;8.20;99.90;;;;;;5060916;28;20080;-59
2021/12/19 13:35:56;;;;;;;20.05;4.38;;;8.30;99.90;;;;;;5061709;28;20128;-60
2021/12/19 13:38:24;;;;;;;21.55;4.63;;;8.30;99.90;;;;;;5023588;28;21585;-59
2021/12/19 13:41:10;;;;;;;22.92;4.38;;;8.30;99.90;;;;;;5061584;28;20096;-58
2021/12/19 13:43:38;;;;;;;25.38;4.22;;;8.40;99.90;;;;;;5041727;28;20075;-58
2021/12/19 13:46:13;;;;;;;26.38;5.63;;;8.40;99.90;;;;;;5043890;28;20079;-59
2021/12/19 13:48:48;;;;;;;24.10;4.80;;;8.40;99.90;;;;;;5061339;28;20061;-59
2021/12/19 13:51:30;;;;;;;23.17;5.28;;;8.40;99.90;;;;;;5043890;28;20152;-59
2021/12/19 13:53:58;;;;;;;24.15;4.40;;;8.40;99.90;;;;;;5059833;28;20041;-59
2021/12/19 13:56:25;;;;;;;25.15;5.18;;;8.40;99.90;;;;;;5061010;28;20419;-59
2021/12/19 13:58:54;;;;;;;29.13;4.70;;;8.40;99.90;;;;;;5058040;28;20063;-60
2021/12/19 14:01:25;;;;;;;19.60;3.90;;;8.40;99.90;;;;;;5026626;28;20056;-59
2021/12/19 14:03:58;;;;;;;18.17;4.25;;;8.40;99.90;;;;;;5042506;28;20041;-59
2021/12/19 14:06:35;;;;;;;19.55;4.53;;;8.30;99.90;;;;;;5061519;28;20056;-59
2021/12/19 14:09:13;;;;;;;18.80;4.05;;;8.30;99.90;;;;;;5043039;28;20037;-59
2021/12/19 14:11:42;;;;;;;19.75;3.78;;;8.30;99.90;;;;;;5061183;28;20044;-59
2021/12/19 14:14:24;;;;;;;20.00;4.45;;;8.30;99.90;;;;;;5040348;28;20368;-59
2021/12/19 14:17:02;;;;;;;20.10;4.35;;;8.30;99.90;;;;;;5041493;28;20098;-59
2021/12/19 14:19:36;;;;;;;18.73;3.55;;;8.30;99.90;;;;;;5042696;28;20149;-61
2021/12/19 14:22:02;;;;;;;17.33;3.92;;;8.30;99.90;;;;;;5039895;28;20122;-60
2021/12/19 14:24:43;;;;;;;16.67;4.20;;;8.20;99.90;;;;;;5019988;28;20045;-60
2021/12/19 14:27:29;;;;;;;22.42;4.22;;;8.20;99.90;;;;;;5020563;28;20143;-60
2021/12/19 14:29:55;;;;;;;15.90;3.28;;;8.10;99.90;;;;;;5047000;28;20126;-60
2021/12/19 14:32:33;;;;;;;20.92;4.43;;;8.10;99.90;;;;;;5037818;28;20124;-59
2021/12/19 14:35:18;;;;;;;11.32;2.47;;;8.10;99.90;;;;;;5039987;28;20057;-60
2021/12/19 14:37:46;;;;;;;16.27;3.28;;;8.00;99.90;;;;;;5034569;28;20046;-60